Time;durP1;ratioP1;P1;durP2;ratioP2;P2;SDS_P1;SDS_P2;PMS_P1;PMS_P2;Temp;Humidity;BMP_temperature;BMP_pressure;BME280_temperature;BME280_humidity;BME280_pressure;Samples;Min_cycle;Max_cycle;Signal;HPM_P1;HPM_P2
2023/04/18 05:38:29;;;;;;;3.65;2.17;;;;;;;13.77;58.62;100637.53;4950599;29;20051;-73
2023/04/18 05:40:59;;;;;;;2.22;1.85;;;;;;;13.76;59.18;100626.84;4936437;29;20401;-74
2023/04/18 05:43:27;;;;;;;5.45;2.00;;;;;;;13.80;59.54;100645.22;4935428;29;20052;-79
2023/04/18 05:45:54;;;;;;;7.18;1.98;;;;;;;13.97;58.78;100644.63;4953675;29;20043;-79
2023/04/18 05:48:24;;;;;;;6.95;2.20;;;;;;;14.15;58.40;100644.88;4936747;29;20512;-78
2023/04/18 05:50:52;;;;;;;6.10;2.03;;;;;;;14.18;57.70;100651.72;4953839;29;20394;-77
2023/04/18 05:53:20;;;;;;;3.95;1.80;;;;;;;14.20;56.52;100642.03;4965658;28;20498;-77
2023/04/18 05:55:48;;;;;;;4.97;2.20;;;;;;;14.23;56.74;100646.13;4935940;29;20501;-79
2023/04/18 05:58:16;;;;;;;3.28;1.85;;;;;;;14.40;57.21;100651.03;4952926;29;20398;-77
2023/04/18 06:00:44;;;;;;;2.33;2.13;;;;;;;14.40;56.26;100651.03;4953023;29;20371;-78
2023/04/18 06:03:12;;;;;;;2.92;2.00;;;;;;;14.48;55.87;100647.56;4950424;28;20423;-78
2023/04/18 06:05:40;;;;;;;6.53;2.90;;;;;;;14.51;56.49;100649.72;4951661;29;20058;-77
2023/04/18 06:08:08;;;;;;;3.38;2.70;;;;;;;14.51;55.72;100652.47;4952042;29;20426;-78
2023/04/18 06:10:36;;;;;;;4.65;2.60;;;;;;;14.61;55.09;100662.47;4970529;28;20066;-79
2023/04/18 06:13:05;;;;;;;5.10;2.65;;;;;;;14.77;55.29;100665.75;4970764;28;20051;-79
2023/04/18 06:15:34;;;;;;;4.07;2.20;;;;;;;14.85;54.97;100668.91;4969475;28;20055;-76
2023/04/18 06:18:01;;;;;;;5.80;2.28;;;;;;;14.95;55.12;100660.44;4952319;29;20402;-77
2023/04/18 06:20:29;;;;;;;2.47;2.28;;;;;;;15.09;54.67;100671.47;4951622;29;20483;-79
2023/04/18 06:22:57;;;;;;;5.20;2.53;;;;;;;15.24;54.00;100670.31;4951747;29;20038;-79
2023/04/18 06:25:25;;;;;;;3.60;2.30;;;;;;;15.40;52.87;100669.97;4951379;29;20059;-80
2023/04/18 06:27:52;;;;;;;3.08;2.10;;;;;;;15.77;52.76;100668.00;4951708;28;20063;-80
2023/04/18 06:30:20;;;;;;;5.57;2.20;;;;;;;15.97;52.31;100674.16;4956002;29;20047;-80
2023/04/18 06:32:48;;;;;;;5.75;2.75;;;;;;;16.08;50.36;100666.47;4955995;29;20043;-79
2023/04/18 06:35:16;;;;;;;2.95;1.73;;;;;;;16.44;50.48;100670.22;4954947;29;20047;-73
2023/04/18 06:37:44;;;;;;;8.13;2.50;;;;;;;16.62;50.72;100680.22;4955156;28;20047;-85
2023/04/18 06:40:12;;;;;;;3.50;2.17;;;;;;;16.78;51.47;100675.06;4954482;29;20516;-81
2023/04/18 06:42:41;;;;;;;2.63;2.10;;;;;;;16.89;49.41;100680.31;4938714;29;20058;-83
2023/04/18 06:45:10;;;;;;;4.88;2.40;;;;;;;17.01;47.47;100674.16;4955124;29;20051;-84
2023/04/18 06:47:39;;;;;;;2.97;1.75;;;;;;;17.09;46.41;100675.34;4955630;29;20047;-84
2023/04/18 06:50:07;;;;;;;2.53;1.40;;;;;;;17.27;46.36;100670.66;4956020;29;20062;-85
2023/04/18 06:52:39;;;;;;;1.60;1.50;;;;;;;17.23;44.27;100672.44;4955672;29;20047;-86
2023/04/18 06:55:08;;;;;;;4.47;1.45;;;;;;;17.34;42.73;100679.28;4955179;29;20058;-86
2023/04/18 06:57:40;;;;;;;2.80;1.70;;;;;;;17.49;43.41;100680.75;4954418;29;20047;-87
2023/04/18 07:00:09;;;;;;;3.78;1.35;;;;;;;17.51;41.91;100680.44;4955631;29;20055;-81
2023/04/18 07:02:38;;;;;;;2.67;1.73;;;;;;;17.55;42.01;100678.66;4936912;29;20047;-84
2023/04/18 07:05:07;;;;;;;2.65;1.65;;;;;;;17.36;39.83;100688.09;4955003;29;20497;-80
2023/04/18 07:07:34;;;;;;;1.52;1.33;;;;;;;17.36;38.51;100688.09;4954994;29;20055;-80
2023/04/18 07:10:02;;;;;;;3.20;2.33;;;;;;;17.38;40.29;100687.75;4955402;29;20043;-81
2023/04/18 07:12:30;;;;;;;2.47;1.83;;;;;;;17.72;40.53;100691.69;4955241;29;20066;-76
2023/04/18 07:14:58;;;;;;;2.33;1.45;;;;;;;17.77;39.52;100682.38;4936871;29;20051;-81
2023/04/18 07:17:25;;;;;;;2.33;1.80;;;;;;;17.87;39.37;100687.59;4953937;29;20058;-80
2023/04/18 07:19:53;;;;;;;2.13;1.70;;;;;;;17.86;39.08;100681.22;4955263;28;20052;-78
2023/04/18 07:22:21;;;;;;;3.78;2.10;;;;;;;17.99;38.02;100687.75;4947900;29;20047;-80
2023/04/18 07:24:48;;;;;;;4.45;2.08;;;;;;;18.11;38.71;100683.50;4952598;29;20516;-90
2023/04/18 07:27:16;;;;;;;1.50;1.40;;;;;;;18.34;39.71;100688.84;4954046;29;20059;-83
2023/04/18 07:29:44;;;;;;;2.33;1.83;;;;;;;18.40;39.00;100690.28;4954261;29;20043;-80
2023/04/18 07:32:12;;;;;;;4.68;2.28;;;;;;;18.46;38.80;100697.28;4953978;29;20043;-81
2023/04/18 07:34:40;;;;;;;3.13;1.98;;;;;;;18.52;38.97;100692.34;4953776;29;20417;-81
2023/04/18 07:37:08;;;;;;;2.92;2.28;;;;;;;18.58;37.33;100695.78;4953143;29;20066;-80
2023/04/18 07:39:35;;;;;;;4.32;2.22;;;;;;;18.63;38.65;100692.81;4954997;28;20555;-81
2023/04/18 07:42:03;;;;;;;4.07;2.72;;;;;;;18.62;37.22;100693.97;4937431;29;20054;-80
2023/04/18 07:44:33;;;;;;;4.57;2.38;;;;;;;18.66;38.21;100698.50;4954090;28;20059;-85
2023/04/18 07:47:02;;;;;;;2.75;1.80;;;;;;;18.84;38.25;100697.59;4954855;29;20061;-83
2023/04/18 07:49:29;;;;;;;4.22;2.50;;;;;;;18.94;38.55;100686.97;4954607;29;20043;-83
2023/04/18 07:51:57;;;;;;;2.10;1.88;;;;;;;18.93;37.93;100693.63;4921608;29;20051;-82
2023/04/18 07:54:25;;;;;;;2.83;2.45;;;;;;;19.02;38.08;100701.13;4936612;29;20047;-88
2023/04/18 07:56:52;;;;;;;2.53;2.10;;;;;;;19.06;38.26;100697.34;4954218;29;20062;-85
2023/04/18 07:59:20;;;;;;;3.75;2.08;;;;;;;19.05;38.31;100708.78;4954080;29;20059;-85
2023/04/18 08:01:48;;;;;;;3.95;2.70;;;;;;;18.99;38.01;100708.16;4956634;28;20422;-78
2023/04/18 08:04:15;;;;;;;6.13;2.95;;;;;;;18.92;39.67;100707.88;4953820;29;20055;-79
2023/04/18 08:06:44;;;;;;;2.72;2.50;;;;;;;19.06;39.31;100711.22;4953662;29;20059;-80
2023/04/18 08:09:11;;;;;;;2.63;2.42;;;;;;;19.07;39.10;100710.06;4936812;29;20043;-79
2023/04/18 08:11:41;;;;;;;3.70;2.65;;;;;;;18.85;39.36;100713.09;4953862;29;20047;-78
2023/04/18 08:14:09;;;;;;;3.58;3.00;;;;;;;18.94;39.26;100706.38;4935946;29;20051;-77
2023/04/18 08:16:38;;;;;;;3.42;2.10;;;;;;;18.99;39.53;100718.41;4955958;28;20066;-81
2023/04/18 08:19:06;;;;;;;4.78;3.22;;;;;;;18.96;38.17;100714.34;4953629;29;20044;-77
2023/04/18 08:21:34;;;;;;;3.08;2.78;;;;;;;19.01;39.64;100718.91;4953231;29;20051;-82
2023/04/18 08:24:02;;;;;;;5.43;3.03;;;;;;;19.12;39.71;100722.13;4953293;29;20135;-83
2023/04/18 08:26:29;;;;;;;4.22;3.03;;;;;;;19.12;39.92;100727.69;4953534;29;20054;-85
2023/04/18 08:28:57;;;;;;;5.30;3.40;;;;;;;19.06;39.44;100733.41;4952736;29;20058;-83
2023/04/18 08:31:26;;;;;;;4.78;3.30;;;;;;;19.13;38.96;100729.31;4953714;29;20094;-85
2023/04/18 08:33:54;;;;;;;3.35;2.80;;;;;;;19.28;39.73;100728.72;4952518;29;20162;-85
2023/04/18 08:36:23;;;;;;;4.65;3.42;;;;;;;19.26;38.80;100733.00;4952672;29;20379;-84
2023/04/18 08:38:51;;;;;;;3.65;3.28;;;;;;;19.28;39.14;100737.06;4954185;29;20047;-84
2023/04/18 08:41:23;;;;;;;5.05;3.42;;;;;;;19.22;38.63;100738.41;4952417;29;20590;-84
2023/04/18 08:43:51;;;;;;;4.18;3.20;;;;;;;19.43;38.75;100748.69;4953797;29;20039;-84
2023/04/18 08:46:22;;;;;;;4.70;3.17;;;;;;;19.44;38.42;100736.44;4953783;29;20058;-83
2023/04/18 08:48:50;;;;;;;3.38;2.90;;;;;;;19.61;38.72;100736.31;4953108;29;20051;-85
2023/04/18 08:51:18;;;;;;;4.88;3.10;;;;;;;19.69;38.14;100739.38;4952690;28;20055;-83
2023/04/18 08:53:47;;;;;;;4.43;3.05;;;;;;;19.61;38.47;100744.66;4953299;29;20043;-82
2023/04/18 08:56:15;;;;;;;5.93;2.90;;;;;;;19.56;38.07;100739.31;4952580;29;20062;-88
2023/04/18 08:58:43;;;;;;;3.80;2.88;;;;;;;19.55;38.01;100729.34;4955444;28;20061;-82
2023/04/18 09:01:12;;;;;;;4.82;3.70;;;;;;;19.79;36.89;100738.97;4952651;29;20043;-83
2023/04/18 09:03:41;;;;;;;3.58;3.13;;;;;;;19.80;37.72;100739.78;4953126;29;20040;-87
2023/04/18 09:06:19;;;;;;;4.50;3.25;;;;;;;19.80;38.10;100743.38;4952038;29;20059;-93
2023/04/18 09:08:57;;;;;;;4.03;3.20;;;;;;;19.75;38.52;100735.25;4952642;29;20071;-88
2023/04/18 09:11:28;;;;;;;3.75;3.33;;;;;;;19.81;37.72;100736.69;4952462;29;20074;-88
2023/04/18 09:13:57;;;;;;;5.53;3.20;;;;;;;20.03;37.88;100734.72;4953274;29;20051;-87
2023/04/18 09:16:26;;;;;;;4.38;3.40;;;;;;;19.78;37.56;100742.06;4954339;28;20050;-89
2023/04/18 09:19:11;;;;;;;4.88;2.88;;;;;;;19.83;36.05;100742.69;4953025;29;20051;-85
2023/04/18 09:21:43;;;;;;;4.45;3.53;;;;;;;19.81;38.76;100747.78;4952396;29;20043;-85
2023/04/18 09:24:28;;;;;;;3.25;2.55;;;;;;;19.94;37.10;100731.19;4937611;29;20071;-94
2023/04/18 09:26:58;;;;;;;3.63;2.85;;;;;;;19.88;35.86;100736.13;4953476;28;20059;-81
2023/04/18 09:29:53;;;;;;;3.60;2.72;;;;;;;20.06;36.92;100730.44;4952053;29;20073;-80
2023/04/18 09:32:27;;;;;;;3.33;2.75;;;;;;;20.16;36.18;100735.56;4934531;29;20050;-84
2023/04/18 09:34:58;;;;;;;5.20;2.83;;;;;;;20.06;35.96;100730.44;4952362;28;20043;-89
2023/04/18 09:37:29;;;;;;;5.10;2.72;;;;;;;20.06;37.70;100728.50;4970949;28;20046;-86
2023/04/18 09:39:57;;;;;;;3.60;2.90;;;;;;;20.23;35.81;100735.03;4972910;28;20039;-84
2023/04/18 09:42:25;;;;;;;3.05;2.67;;;;;;;20.37;34.56;100735.53;4962328;28;20074;-86
2023/04/18 09:45:07;;;;;;;3.58;3.00;;;;;;;20.40;36.14;100729.25;4952549;29;20048;-84
2023/04/18 09:47:36;;;;;;;3.95;3.00;;;;;;;20.20;35.08;100725.41;4952468;28;20071;-86
2023/04/18 09:50:06;;;;;;;4.00;2.80;;;;;;;20.35;35.20;100737.03;4953485;29;20040;-69
2023/04/18 09:52:41;;;;;;;4.32;2.78;;;;;;;20.33;34.17;100734.56;4952142;28;20047;-67
2023/04/18 09:55:11;;;;;;;2.50;2.30;;;;;;;20.24;35.17;100728.31;4950099;29;20051;-67
2023/04/18 09:57:43;;;;;;;5.80;3.35;;;;;;;20.04;35.06;100725.22;4952214;29;20055;-67
2023/04/18 10:00:26;;;;;;;3.35;2.60;;;;;;;20.19;35.26;100728.53;4952055;29;20055;-67
2023/04/18 10:03:08;;;;;;;4.00;3.00;;;;;;;20.21;36.20;100729.81;4953055;28;20368;-66
2023/04/18 10:05:40;;;;;;;4.30;3.25;;;;;;;20.21;36.73;100731.75;4953154;29;20048;-87
2023/04/18 10:08:08;;;;;;;5.53;3.47;;;;;;;20.37;36.29;100729.97;4957511;29;20039;-85
2023/04/18 10:10:36;;;;;;;3.80;3.08;;;;;;;20.33;36.30;100725.44;4956636;29;20058;-87
2023/04/18 10:13:10;;;;;;;3.85;3.38;;;;;;;20.47;35.84;100731.50;4955827;29;20501;-89
2023/04/18 10:15:38;;;;;;;3.78;3.38;;;;;;;20.35;36.55;100723.94;4955353;29;20059;-88
2023/04/18 10:18:13;;;;;;;4.70;3.65;;;;;;;20.16;35.54;100726.41;4956312;29;20050;-86
2023/04/18 10:20:41;;;;;;;5.05;3.60;;;;;;;20.37;36.37;100727.19;4956290;29;20047;-85
2023/04/18 10:23:39;;;;;;;4.00;3.35;;;;;;;20.68;35.92;100728.63;4956236;29;20497;-84
2023/04/18 10:26:08;;;;;;;4.55;3.55;;;;;;;20.96;34.46;100716.03;4962861;29;20055;-86
2023/04/18 10:28:57;;;;;;;5.13;3.15;;;;;;;21.18;36.91;100720.34;4968948;29;20054;-91
2023/04/18 10:31:26;;;;;;;4.00;3.03;;;;;;;21.13;35.06;100715.00;4965787;29;20047;-87
2023/04/18 10:33:59;;;;;;;5.05;3.33;;;;;;;21.30;34.43;100710.31;4965189;28;20055;-82
2023/04/18 10:36:29;;;;;;;3.33;2.67;;;;;;;21.49;34.68;100709.72;4962573;29;20051;-86
2023/04/18 10:39:20;;;;;;;4.28;3.30;;;;;;;;;;4964463;29;20054;-81
2023/04/18 10:41:49;;;;;;;4.20;2.97;;;;;;;21.67;34.17;100706.66;4953281;29;20054;-83
2023/04/18 10:44:21;;;;;;;4.80;3.55;;;;;;;21.43;32.22;100713.91;4958298;28;20055;-82
2023/04/18 10:46:50;;;;;;;5.18;3.17;;;;;;;21.58;33.91;100690.09;4953590;29;20055;-90
2023/04/18 10:49:26;;;;;;;4.95;3.85;;;;;;;21.89;34.03;100699.75;4937842;29;20047;-84
2023/04/18 10:51:58;;;;;;;3.95;2.92;;;;;;;22.20;34.18;100701.00;4937316;29;20043;-85
2023/04/18 10:54:37;;;;;;;4.63;3.25;;;;;;;22.19;32.45;100704.94;4954318;29;20058;-87
2023/04/18 10:57:10;;;;;;;3.65;3.13;;;;;;;22.32;33.32;100699.28;4954264;29;20098;-88
2023/04/18 10:59:41;;;;;;;5.82;2.88;;;;;;;22.10;32.28;100682.00;4955402;29;20517;-88
2023/04/18 11:02:29;;;;;;;3.33;2.80;;;;;;;21.90;33.66;100684.66;4955302;29;20050;-89
2023/04/18 11:05:03;;;;;;;4.32;3.50;;;;;;;21.84;33.30;100680.50;4956462;29;20043;-87
2023/04/18 11:07:35;;;;;;;3.95;3.20;;;;;;;21.91;33.39;100682.69;4958182;29;20429;-87
2023/04/18 11:10:07;;;;;;;4.35;2.78;;;;;;;22.13;32.58;100686.84;4956371;29;20058;-86
2023/04/18 11:12:37;;;;;;;3.88;3.28;;;;;;;22.17;32.79;100679.41;4955650;29;20043;-86
2023/04/18 11:15:21;;;;;;;3.58;3.03;;;;;;;22.23;33.17;100680.75;4954434;28;20078;-92
2023/04/18 11:18:03;;;;;;;6.10;3.13;;;;;;;22.34;32.31;100691.38;4955807;29;20055;-89
2023/04/18 11:20:39;;;;;;;3.92;3.25;;;;;;;22.36;32.71;100689.03;4956732;29;20058;-89
2023/04/18 11:23:23;;;;;;;7.68;4.13;;;;;;;22.39;30.00;100686.34;4955301;29;20071;-87
2023/04/18 11:25:55;;;;;;;4.53;3.53;;;;;;;22.06;30.55;100681.91;4954516;29;20509;-87
2023/04/18 11:28:26;;;;;;;5.00;3.65;;;;;;;22.21;30.88;100680.31;4954641;29;20056;-87
2023/04/18 11:30:58;;;;;;;4.43;3.20;;;;;;;22.41;32.07;100674.84;4953855;29;20055;-89
2023/04/18 11:33:28;;;;;;;3.97;3.50;;;;;;;22.73;31.64;100674.84;4955825;29;20047;-88
2023/04/18 11:35:57;;;;;;;3.15;2.80;;;;;;;22.69;32.36;100679.56;4954662;28;20072;-89
2023/04/18 11:38:32;;;;;;;5.60;3.85;;;;;;;22.82;32.01;100669.91;4936978;29;20548;-87
2023/04/18 11:41:03;;;;;;;5.22;4.07;;;;;;;22.67;32.84;100670.72;4955060;29;20050;-90
2023/04/18 11:43:31;;;;;;;5.57;3.95;;;;;;;22.80;32.04;100665.84;4953920;29;20534;-88
2023/04/18 11:45:59;;;;;;;4.80;3.55;;;;;;;22.37;31.10;100660.00;4953533;29;20058;-86
2023/04/18 11:48:37;;;;;;;5.03;3.42;;;;;;;22.54;32.16;100673.59;4955085;29;20549;-86
2023/04/18 11:51:06;;;;;;;4.35;3.13;;;;;;;22.88;30.77;100664.84;4954338;29;20051;-88
2023/04/18 11:53:35;;;;;;;2.95;2.65;;;;;;;23.06;31.58;100665.28;4953965;29;20055;-85
2023/04/18 11:56:04;;;;;;;4.60;3.33;;;;;;;22.97;29.85;100670.22;4954373;29;20051;-90
2023/04/18 11:58:33;;;;;;;5.65;3.00;;;;;;;22.95;31.53;100675.38;4937578;29;20498;-88
2023/04/18 12:01:18;;;;;;;3.08;2.67;;;;;;;22.82;30.91;100674.66;4954151;29;20054;-87
2023/04/18 12:04:05;;;;;;;2.67;2.45;;;;;;;23.31;30.20;100670.63;4954266;29;20059;-88
2023/04/18 12:06:52;;;;;;;2.15;1.95;;;;;;;23.36;29.83;100666.72;4955126;29;20055;-87
2023/04/18 12:09:23;;;;;;;2.95;2.38;;;;;;;23.54;31.24;100672.69;4954935;29;20055;-89
2023/04/18 12:11:58;;;;;;;4.45;2.85;;;;;;;23.53;31.06;100665.50;4953514;29;20398;-89
2023/04/18 12:14:27;;;;;;;3.67;2.60;;;;;;;23.70;30.96;100660.66;4952144;29;20055;-87
2023/04/18 12:16:55;;;;;;;3.97;2.90;;;;;;;23.61;30.27;100667.25;4952722;29;20070;-86
2023/04/18 12:19:27;;;;;;;3.60;2.90;;;;;;;23.88;30.65;100663.78;4952179;29;20054;-88
2023/04/18 12:21:56;;;;;;;3.83;2.90;;;;;;;23.71;31.33;100662.28;4953759;29;20059;-88
2023/04/18 12:24:25;;;;;;;3.85;3.00;;;;;;;23.40;31.56;100666.81;4935557;29;20060;-91
2023/04/18 12:26:54;;;;;;;3.28;2.65;;;;;;;23.59;30.95;100664.03;4952090;28;20371;-91
2023/04/18 12:29:22;;;;;;;4.32;3.38;;;;;;;23.84;30.85;100660.09;4955881;29;20404;-91
2023/04/18 12:31:50;;;;;;;4.30;3.00;;;;;;;23.83;29.79;100664.91;4950003;29;20043;-91
2023/04/18 12:34:18;;;;;;;4.43;3.38;;;;;;;23.68;30.98;100663.00;4955432;29;20035;-92
2023/04/18 12:36:46;;;;;;;3.88;2.88;;;;;;;23.72;30.43;100666.66;4952549;29;20067;-93
2023/04/18 12:39:13;;;;;;;3.95;3.15;;;;;;;23.96;29.60;100664.72;4953776;29;20043;-90
2023/04/18 12:41:42;;;;;;;3.90;3.15;;;;;;;24.01;30.88;100661.63;4952215;28;20051;-92
2023/04/18 12:44:11;;;;;;;4.63;2.88;;;;;;;24.03;30.71;100670.44;4952247;29;20047;-91
2023/04/18 12:46:39;;;;;;;6.72;4.32;;;;;;;24.09;29.66;100666.19;4952810;29;20067;-91
2023/04/18 12:49:07;;;;;;;3.60;3.03;;;;;;;24.28;31.03;100670.13;4952983;29;20050;-92
2023/04/18 12:51:34;;;;;;;4.40;3.53;;;;;;;24.01;30.27;100662.44;4951824;29;20047;-91
2023/04/18 12:54:03;;;;;;;4.35;3.38;;;;;;;24.29;29.95;100671.72;4952853;29;20490;-93
2023/04/18 12:56:30;;;;;;;4.75;3.28;;;;;;;24.28;31.89;100665.34;4953091;29;20039;-91
2023/04/18 12:58:58;;;;;;;4.80;3.35;;;;;;;24.02;30.12;100663.25;4950620;29;20058;-91
2023/04/18 13:01:26;;;;;;;5.32;3.63;;;;;;;23.94;29.86;100661.50;4927744;29;20055;-92
2023/04/18 13:03:54;;;;;;;3.67;3.22;;;;;;;24.15;31.31;100666.72;4953237;29;20062;-92
2023/04/18 13:06:36;;;;;;;2.65;2.45;;;;;;;24.26;29.64;100655.72;4952596;29;20055;-92
2023/04/18 13:09:04;;;;;;;3.00;2.60;;;;;;;24.48;29.47;100667.28;4952294;29;20070;-92
2023/04/18 13:11:32;;;;;;;3.38;2.55;;;;;;;24.70;29.44;100658.03;4952042;29;20058;-92
2023/04/18 13:13:59;;;;;;;3.80;2.78;;;;;;;24.52;28.42;100668.13;4936337;29;20054;-93
2023/04/18 13:16:27;;;;;;;3.78;2.80;;;;;;;24.55;29.69;100653.41;4952647;29;20047;-91
2023/04/18 13:18:55;;;;;;;3.25;2.38;;;;;;;24.83;29.00;100655.09;4951550;29;20047;-92
2023/04/18 13:21:24;;;;;;;3.30;3.00;;;;;;;24.74;28.79;100648.91;4952662;29;20047;-92
2023/04/18 13:23:52;;;;;;;3.88;2.55;;;;;;;24.53;28.95;100662.16;4952863;29;20055;-94
2023/04/18 13:26:20;;;;;;;4.47;2.90;;;;;;;24.53;28.29;100667.75;4952146;29;20410;-91
2023/04/18 13:28:48;;;;;;;4.43;2.45;;;;;;;24.87;29.73;100658.72;4953704;29;20055;-91
2023/04/18 13:31:16;;;;;;;3.85;2.35;;;;;;;24.67;28.43;100653.22;4947897;29;20051;-91
2023/04/18 13:33:44;;;;;;;2.05;1.80;;;;;;;24.80;28.71;100656.59;4952319;29;20058;-93
2023/04/18 13:36:12;;;;;;;2.63;1.88;;;;;;;24.57;29.33;100665.03;4952077;29;20047;-91
2023/04/18 13:38:40;;;;;;;2.25;1.88;;;;;;;24.34;28.40;100659.44;4949008;29;20051;-94
2023/04/18 13:41:08;;;;;;;3.97;1.52;;;;;;;24.21;26.39;100650.44;4951317;29;20047;-92
2023/04/18 13:43:40;;;;;;;2.35;1.45;;;;;;;24.19;28.59;100650.00;4952728;29;20051;-90
2023/04/18 13:46:08;;;;;;;1.70;1.60;;;;;;;23.87;28.95;100654.59;4952840;29;20043;-93
2023/04/18 13:48:36;;;;;;;1.92;1.80;;;;;;;23.45;29.49;100658.97;4952390;29;20039;-94
2023/04/18 13:51:04;;;;;;;1.60;1.50;;;;;;;23.04;27.82;100650.88;4953303;29;20055;-93
2023/04/18 13:53:32;;;;;;;1.98;1.40;;;;;;;22.78;29.06;100655.06;4953211;29;20040;-93
2023/04/18 13:56:00;;;;;;;1.73;1.10;;;;;;;22.75;29.13;100653.00;4952804;29;20391;-94
2023/04/18 13:58:28;;;;;;;2.05;1.20;;;;;;;22.66;29.18;100650.41;4967978;28;20062;-93
2023/04/18 14:00:56;;;;;;;1.67;1.20;;;;;;;22.58;28.89;100651.38;4933239;29;20061;-92
2023/04/18 14:03:24;;;;;;;2.25;0.80;;;;;;;22.43;28.54;100650.19;4946516;29;20383;-89
2023/04/18 14:05:52;;;;;;;1.55;1.45;;;;;;;22.33;29.39;100659.13;4952436;29;20064;-93
2023/04/18 14:08:19;;;;;;;1.73;1.52;;;;;;;22.18;29.41;100649.56;4954353;29;20075;-93
2023/04/18 14:10:47;;;;;;;2.00;1.77;;;;;;;21.85;30.88;100657.84;4953315;29;20043;-92
2023/04/18 14:13:15;;;;;;;1.30;1.20;;;;;;;21.98;29.73;100653.03;4953974;29;20132;-91
2023/04/18 14:15:43;;;;;;;1.17;1.13;;;;;;;21.95;29.79;100653.75;4952693;28;20051;-92
2023/04/18 14:18:11;;;;;;;2.10;1.40;;;;;;;21.89;29.74;100655.16;4951440;29;20561;-93
2023/04/18 14:20:39;;;;;;;2.03;1.52;;;;;;;21.91;30.18;100655.63;4945538;29;20402;-90
2023/04/18 14:23:07;;;;;;;1.45;1.35;;;;;;;22.08;29.55;100664.81;4947789;29;20063;-91
2023/04/18 14:25:35;;;;;;;1.08;1.02;;;;;;;22.08;29.26;100659.25;4952855;29;20055;-88
2023/04/18 14:28:09;;;;;;;1.73;1.63;;;;;;;22.29;29.36;100654.25;4953343;29;20043;-90
2023/04/18 14:30:38;;;;;;;1.67;1.42;;;;;;;22.60;29.91;100659.41;4920532;29;20055;-90
2023/04/18 14:33:08;;;;;;;3.22;1.50;;;;;;;22.50;28.21;100655.16;4953122;29;20426;-90
2023/04/18 14:35:36;;;;;;;1.60;1.48;;;;;;;22.68;28.04;100655.63;4952592;29;20040;-89
2023/04/18 14:38:04;;;;;;;1.33;1.20;;;;;;;22.69;29.03;100660.03;4952625;29;20074;-88
2023/04/18 14:40:31;;;;;;;1.50;1.27;;;;;;;22.84;27.61;100652.00;4952709;29;20055;-89
2023/04/18 14:42:59;;;;;;;1.40;1.30;;;;;;;23.12;29.05;100651.81;4952831;29;20062;-91
2023/04/18 14:45:31;;;;;;;2.00;1.50;;;;;;;23.20;26.91;100650.00;4952415;29;20059;-92
2023/04/18 14:48:00;;;;;;;1.20;1.10;;;;;;;23.16;27.98;100646.34;4951836;29;20051;-91
2023/04/18 14:50:27;;;;;;;1.88;1.48;;;;;;;23.21;28.27;100640.44;4954437;28;20047;-89
2023/04/18 14:52:55;;;;;;;2.10;1.40;;;;;;;23.33;28.04;100645.13;4938098;29;20051;-90
2023/04/18 14:55:24;;;;;;;1.33;1.23;;;;;;;23.23;28.28;100643.72;4952680;29;20397;-91
2023/04/18 14:57:53;;;;;;;2.97;1.23;;;;;;;23.34;28.21;100646.75;4954903;29;20054;-90
2023/04/18 15:00:21;;;;;;;1.60;1.30;;;;;;;23.28;28.03;100640.63;4954373;29;20137;-90
2023/04/18 15:02:49;;;;;;;3.90;1.30;;;;;;;23.24;27.77;100642.53;4954413;29;20071;-89
2023/04/18 15:05:18;;;;;;;2.08;1.38;;;;;;;23.32;27.92;100643.53;4954518;29;20062;-89
2023/04/18 15:07:46;;;;;;;1.95;1.50;;;;;;;23.15;28.25;100642.72;4954158;29;20047;-88
2023/04/18 15:10:15;;;;;;;1.60;1.50;;;;;;;22.98;29.12;100646.75;4955362;29;20386;-89
2023/04/18 15:12:42;;;;;;;2.92;1.25;;;;;;;22.91;28.24;100652.16;4955002;29;20051;-91
2023/04/18 15:15:10;;;;;;;2.33;1.38;;;;;;;22.97;29.74;100636.75;4954424;29;20055;-88
2023/04/18 15:17:38;;;;;;;1.77;1.33;;;;;;;22.92;29.29;100642.63;4954639;29;20087;-92
2023/04/18 15:20:07;;;;;;;1.13;1.02;;;;;;;23.04;29.30;100638.91;4954137;29;20066;-90
2023/04/18 15:22:35;;;;;;;2.45;1.33;;;;;;;22.94;28.62;100643.06;4954940;29;20039;-90
2023/04/18 15:25:04;;;;;;;1.13;1.05;;;;;;;22.97;29.48;100647.91;4954253;29;20039;-90
2023/04/18 15:27:32;;;;;;;1.10;1.00;;;;;;;22.77;28.81;100647.84;4954132;29;20068;-91
2023/04/18 15:30:01;;;;;;;1.45;1.10;;;;;;;22.62;29.01;100648.72;4954121;29;20047;-89
2023/04/18 15:32:29;;;;;;;1.48;1.33;;;;;;;22.59;29.26;100650.25;4953322;29;20081;-88
2023/04/18 15:34:57;;;;;;;4.20;1.33;;;;;;;22.46;29.76;100648.66;4953929;29;20055;-89
2023/04/18 15:37:25;;;;;;;1.40;1.25;;;;;;;22.37;30.12;100648.84;4953780;29;20047;-89
2023/04/18 15:39:53;;;;;;;2.33;1.55;;;;;;;22.27;29.32;100644.63;4953563;29;20379;-88
2023/04/18 15:42:21;;;;;;;3.40;1.30;;;;;;;22.34;30.46;100641.22;4954245;29;20039;-88
2023/04/18 15:44:49;;;;;;;0.80;0.80;;;;;;;22.23;30.67;100647.31;4937050;29;20055;-91
2023/04/18 15:47:17;;;;;;;1.65;1.08;;;;;;;22.26;30.44;100648.56;4937278;29;20047;-93
2023/04/18 15:49:45;;;;;;;3.40;1.30;;;;;;;22.10;30.70;100643.78;4954545;29;20043;-89
2023/04/18 15:52:14;;;;;;;1.65;1.33;;;;;;;21.95;30.69;100650.94;4953709;29;20051;-91
2023/04/18 15:54:42;;;;;;;1.33;1.23;;;;;;;21.84;31.47;100650.66;4937390;29;20054;-91
2023/04/18 15:57:10;;;;;;;1.40;1.30;;;;;;;21.70;31.35;100653.88;4954257;29;20043;-87
2023/04/18 15:59:38;;;;;;;1.77;1.58;;;;;;;21.68;31.53;100653.38;4953194;29;20067;-88
2023/04/18 16:02:07;;;;;;;3.25;1.60;;;;;;;21.78;31.21;100654.88;4953568;28;20050;-88
2023/04/18 16:04:35;;;;;;;2.20;1.35;;;;;;;21.52;31.29;100650.56;4953778;29;20054;-89
2023/04/18 16:07:03;;;;;;;1.77;1.55;;;;;;;21.57;31.40;100652.28;4951999;29;20058;-88
2023/04/18 16:09:31;;;;;;;1.80;1.42;;;;;;;21.60;31.64;100660.72;4953568;29;20035;-91
2023/04/18 16:12:00;;;;;;;1.83;1.40;;;;;;;21.58;31.56;100659.44;4953886;29;20052;-89
2023/04/18 16:14:29;;;;;;;1.70;1.60;;;;;;;21.41;31.33;100658.56;4952907;29;20059;-88
2023/04/18 16:16:57;;;;;;;1.88;1.45;;;;;;;21.38;31.97;100662.06;4950472;28;20059;-88
2023/04/18 16:19:25;;;;;;;2.35;1.30;;;;;;;21.45;32.99;100665.06;4953555;29;20051;-88
2023/04/18 16:21:53;;;;;;;2.92;2.10;;;;;;;21.46;34.31;100663.91;4954650;28;20051;-86
2023/04/18 16:24:21;;;;;;;2.60;1.52;;;;;;;21.46;34.65;100671.47;4954216;29;20128;-90
2023/04/18 16:26:49;;;;;;;4.53;2.50;;;;;;;21.22;34.91;100673.13;4952356;29;20047;-87
2023/04/18 16:29:17;;;;;;;7.72;2.80;;;;;;;21.25;35.64;100671.63;4954546;29;20051;-88
2023/04/18 16:31:44;;;;;;;2.42;2.20;;;;;;;21.33;35.00;100667.88;4954136;29;20047;-87
2023/04/18 16:34:14;;;;;;;4.15;2.28;;;;;;;21.26;35.48;100667.69;4953425;29;20050;-88
2023/04/18 16:36:42;;;;;;;2.15;1.92;;;;;;;21.19;35.31;100671.03;4954032;29;20051;-89
2023/04/18 16:39:10;;;;;;;2.00;1.90;;;;;;;21.15;35.31;100673.72;4954395;29;20063;-89
2023/04/18 16:41:38;;;;;;;2.60;2.35;;;;;;;21.03;35.74;100673.75;4954663;29;20509;-89
2023/04/18 16:44:06;;;;;;;2.40;2.17;;;;;;;21.07;35.31;100678.25;4952836;29;20055;-88
2023/04/18 16:46:33;;;;;;;2.00;1.80;;;;;;;21.12;36.48;100682.75;4953609;29;20051;-88
2023/04/18 16:49:01;;;;;;;2.78;1.75;;;;;;;21.16;35.81;100680.91;4953352;29;20055;-89
2023/04/18 16:51:30;;;;;;;2.20;1.75;;;;;;;21.04;36.13;100678.13;4952507;29;20050;-89
2023/04/18 16:53:58;;;;;;;4.38;2.38;;;;;;;20.86;36.17;100680.38;4953535;29;20394;-91
2023/04/18 16:56:25;;;;;;;3.22;2.22;;;;;;;20.96;36.19;100679.88;4950336;29;21008;-90
2023/04/18 16:58:53;;;;;;;2.78;2.30;;;;;;;20.90;36.25;100690.44;4951972;29;20517;-91
2023/04/18 17:01:21;;;;;;;3.20;1.90;;;;;;;20.92;37.09;100685.31;4951324;29;20066;-93
2023/04/18 17:03:49;;;;;;;2.40;2.20;;;;;;;20.80;35.98;100691.69;4951152;29;20047;-87
2023/04/18 17:06:18;;;;;;;2.90;2.17;;;;;;;20.67;36.53;100690.88;4948428;29;20051;-83
2023/04/18 17:08:47;;;;;;;2.80;2.47;;;;;;;20.70;36.37;100696.88;4952122;29;20502;-80
2023/04/18 17:11:15;;;;;;;2.38;1.95;;;;;;;20.68;36.34;100698.03;4952962;29;20054;-80
2023/04/18 17:13:43;;;;;;;2.72;2.30;;;;;;;20.76;36.31;100690.75;4954108;28;20088;-90
2023/04/18 17:16:11;;;;;;;2.13;1.88;;;;;;;20.82;35.59;100696.88;4951496;28;20059;-88